Time;durP1;ratioP1;P1;durP2;ratioP2;P2;SDS_P1;SDS_P2;PMS_P1;PMS_P2;Temp;Humidity;BMP_temperature;BMP_pressure;BME280_temperature;BME280_humidity;BME280_pressure;Samples;Min_cycle;Max_cycle;Signal;HPM_P1;HPM_P2
2023/12/17 00:00:13;;;;;;;6.47;5.00;;;1.20;99.90;;;;;;5096222;28;20197;-77
2023/12/17 00:02:39;;;;;;;6.63;5.37;;;0.90;99.90;;;;;;5095494;28;20198;-77
2023/12/17 00:05:06;;;;;;;6.67;5.80;;;0.90;99.90;;;;;;5095990;28;20565;-76
2023/12/17 00:07:31;;;;;;;7.47;5.20;;;2.00;99.90;;;;;;5094897;28;20169;-78
2023/12/17 00:09:57;;;;;;;7.23;5.10;;;0.80;99.90;;;;;;5095228;28;20232;-77
2023/12/17 00:12:23;;;;;;;6.73;5.47;;;0.80;99.90;;;;;;5094766;28;20180;-76
2023/12/17 00:14:49;;;;;;;6.23;5.13;;;0.70;99.90;;;;;;5076588;28;20183;-76
2023/12/17 00:17:15;;;;;;;6.07;4.80;;;0.80;99.90;;;;;;5094696;28;20173;-78
2023/12/17 00:19:40;;;;;;;6.27;4.83;;;0.70;99.90;;;;;;5094939;28;20160;-76
2023/12/17 00:22:06;;;;;;;6.70;5.90;;;0.80;99.90;;;;;;5094941;28;20215;-77
2023/12/17 00:24:32;;;;;;;6.23;5.30;;;0.70;99.90;;;;;;5095253;28;20289;-76
2023/12/17 00:26:58;;;;;;;8.87;5.73;;;0.70;99.90;;;;;;5095067;28;20181;-78
2023/12/17 00:29:24;;;;;;;6.47;5.40;;;0.80;99.90;;;;;;5095264;28;20181;-78
2023/12/17 00:31:49;;;;;;;7.13;6.27;;;0.70;99.90;;;;;;5095197;28;20173;-78
2023/12/17 00:34:15;;;;;;;7.33;5.50;;;0.80;99.90;;;;;;5077700;28;20176;-75
2023/12/17 00:36:41;;;;;;;10.73;6.73;;;0.70;99.90;;;;;;5095911;28;20170;-77
2023/12/17 00:39:07;;;;;;;7.50;6.13;;;0.60;99.90;;;;;;5095362;28;20174;-77
2023/12/17 00:41:33;;;;;;;9.27;6.80;;;0.60;99.90;;;;;;5095705;28;20201;-76
2023/12/17 00:43:59;;;;;;;11.47;8.13;;;0.60;99.90;;;;;;5096098;28;20186;-77
2023/12/17 00:46:25;;;;;;;10.43;7.73;;;0.60;99.90;;;;;;5104336;28;20174;-79
2023/12/17 00:48:51;;;;;;;9.87;7.93;;;0.50;99.90;;;;;;5076720;28;20170;-76
2023/12/17 00:51:18;;;;;;;12.53;8.47;;;0.40;99.90;;;;;;5094598;28;20173;-78
2023/12/17 00:53:45;;;;;;;12.17;8.50;;;0.50;99.90;;;;;;5098201;28;20181;-77
2023/12/17 00:56:11;;;;;;;9.90;8.13;;;0.40;99.90;;;;;;5106373;28;20173;-76
2023/12/17 00:58:36;;;;;;;11.60;8.93;;;0.40;99.90;;;;;;5090709;28;20269;-76
2023/12/17 01:01:02;;;;;;;11.50;8.90;;;0.30;99.90;;;;;;5085988;28;20185;-75
2023/12/17 01:03:28;;;;;;;13.90;9.77;;;0.30;99.90;;;;;;5101273;28;20275;-76
2023/12/17 01:05:54;;;;;;;15.07;10.53;;;0.30;99.90;;;;;;5096960;28;20181;-75
2023/12/17 01:08:20;;;;;;;17.13;10.83;;;0.30;99.90;;;;;;5094367;28;20176;-75
2023/12/17 01:10:45;;;;;;;16.60;10.30;;;0.30;99.90;;;;;;5096477;28;20225;-78
2023/12/17 01:13:11;;;;;;;20.63;11.03;;;0.30;99.90;;;;;;5102245;28;20169;-78
2023/12/17 01:15:37;;;;;;;19.30;10.90;;;0.30;99.90;;;;;;5113194;28;20180;-75
2023/12/17 01:18:03;;;;;;;15.87;10.43;;;0.30;99.90;;;;;;5106224;28;20184;-77
2023/12/17 01:20:28;;;;;;;17.03;10.93;;;0.30;99.90;;;;;;5094341;28;20173;-77
2023/12/17 01:22:54;;;;;;;14.73;10.73;;;0.20;99.90;;;;;;5097986;28;20209;-77
2023/12/17 01:25:20;;;;;;;13.53;10.07;;;0.30;99.90;;;;;;5096942;28;20200;-79
2023/12/17 01:27:46;;;;;;;14.60;10.57;;;0.30;99.90;;;;;;5096437;28;20180;-76
2023/12/17 01:30:12;;;;;;;15.80;10.33;;;0.20;99.90;;;;;;5095721;28;20185;-77
2023/12/17 01:32:37;;;;;;;11.23;8.93;;;0.20;99.90;;;;;;5075747;28;20272;-77
2023/12/17 01:35:05;;;;;;;14.17;10.23;;;0.30;99.90;;;;;;5094409;28;20529;-77
2023/12/17 01:37:31;;;;;;;13.13;8.37;;;0.30;99.90;;;;;;5072568;28;20187;-76
2023/12/17 01:39:57;;;;;;;14.87;9.93;;;0.40;99.90;;;;;;5073768;28;20177;-78
2023/12/17 01:42:22;;;;;;;13.33;9.33;;;0.30;99.90;;;;;;5074293;28;20216;-77
2023/12/17 01:44:48;;;;;;;13.60;8.77;;;0.60;99.90;;;;;;5083364;28;20183;-78
2023/12/17 01:47:14;;;;;;;13.37;9.13;;;0.30;99.90;;;;;;5083895;28;20181;-78
2023/12/17 01:49:40;;;;;;;15.33;9.87;;;0.30;99.90;;;;;;5075411;28;20171;-77
2023/12/17 01:52:06;;;;;;;12.60;8.97;;;0.20;99.90;;;;;;5073997;28;20188;-77
2023/12/17 01:54:32;;;;;;;14.10;9.53;;;0.20;99.90;;;;;;5074812;28;20182;-77
2023/12/17 01:56:57;;;;;;;14.17;8.77;;;0.20;99.90;;;;;;5074005;28;20270;-76
2023/12/17 01:59:23;;;;;;;9.40;7.97;;;0.20;99.90;;;;;;5054353;28;20650;-78
2023/12/17 02:01:53;;;;;;;16.60;9.40;;;0.20;99.90;;;;;;5054947;28;20220;-75
2023/12/17 02:04:21;;;;;;;12.47;8.63;;;0.20;99.90;;;;;;5083372;28;20172;-78
2023/12/17 02:06:47;;;;;;;14.87;10.27;;;0.30;99.90;;;;;;5077447;28;20208;-77
2023/12/17 02:09:13;;;;;;;14.27;9.63;;;0.20;99.90;;;;;;5077227;28;20226;-77
2023/12/17 02:11:39;;;;;;;14.17;9.27;;;0.10;99.90;;;;;;5076730;28;20162;-78
2023/12/17 02:14:04;;;;;;;12.90;9.23;;;0.10;99.90;;;;;;5079542;28;20171;-76
2023/12/17 02:16:30;;;;;;;11.87;9.47;;;0.10;99.90;;;;;;5080864;28;20177;-77
2023/12/17 02:19:00;;;;;;;16.70;9.50;;;0.00;99.90;;;;;;5085409;28;20179;-77
2023/12/17 02:21:26;;;;;;;10.77;8.70;;;-0.10;99.90;;;;;;5076344;28;20175;-77
2023/12/17 02:23:53;;;;;;;12.97;8.50;;;0.00;99.90;;;;;;5077347;28;20237;-77
2023/12/17 02:26:19;;;;;;;13.97;9.53;;;0.00;99.90;;;;;;5059313;28;20171;-77
2023/12/17 02:28:47;;;;;;;12.53;8.90;;;0.00;99.90;;;;;;5076426;28;20184;-77
2023/12/17 02:31:13;;;;;;;11.97;9.03;;;-0.20;99.90;;;;;;5077931;28;20169;-75
2023/12/17 02:33:39;;;;;;;13.27;8.83;;;-0.20;99.90;;;;;;5077520;28;20178;-78
2023/12/17 02:36:05;;;;;;;15.37;9.17;;;-0.10;99.90;;;;;;5078054;28;20273;-76
2023/12/17 02:38:31;;;;;;;12.97;8.87;;;0.00;99.90;;;;;;5082628;28;20180;-77
2023/12/17 02:40:56;;;;;;;13.13;9.13;;;-0.50;99.90;;;;;;5085784;28;20183;-75
2023/12/17 02:43:22;;;;;;;14.97;9.33;;;0.00;99.90;;;;;;5088568;28;20723;-77
2023/12/17 02:45:48;;;;;;;15.23;9.37;;;0.00;99.90;;;;;;5082750;28;20192;-76
2023/12/17 02:48:14;;;;;;;10.77;8.60;;;0.00;99.90;;;;;;5081043;28;20181;-77
2023/12/17 02:50:39;;;;;;;13.37;9.70;;;0.00;99.90;;;;;;5076765;28;20174;-76
2023/12/17 02:53:05;;;;;;;13.60;8.97;;;0.00;99.90;;;;;;5076296;28;20668;-77
2023/12/17 02:55:31;;;;;;;13.03;9.70;;;0.00;99.90;;;;;;5076354;28;20231;-77
2023/12/17 02:57:56;;;;;;;13.13;9.23;;;-0.10;99.90;;;;;;5059331;28;20189;-78
2023/12/17 03:00:22;;;;;;;18.17;9.53;;;-0.20;99.90;;;;;;5076920;28;20172;-77
2023/12/17 03:02:48;;;;;;;13.40;9.63;;;-0.10;99.90;;;;;;5075899;28;20219;-77
2023/12/17 03:05:14;;;;;;;16.57;10.33;;;-0.20;99.90;;;;;;5075805;28;20531;-75
2023/12/17 03:07:39;;;;;;;12.47;9.40;;;-0.20;99.90;;;;;;5076334;28;20222;-76
2023/12/17 03:10:05;;;;;;;15.67;10.30;;;-0.20;99.90;;;;;;5075238;28;20224;-77
2023/12/17 03:12:31;;;;;;;15.33;10.53;;;-0.20;99.90;;;;;;5075541;28;20664;-78
2023/12/17 03:14:57;;;;;;;15.87;10.10;;;-0.10;99.90;;;;;;5074683;28;20174;-76
2023/12/17 03:17:23;;;;;;;18.17;11.27;;;-0.20;99.90;;;;;;5075962;28;20178;-76
2023/12/17 03:19:49;;;;;;;16.30;10.50;;;-0.30;99.90;;;;;;5077169;28;20489;-78
2023/12/17 03:22:14;;;;;;;15.23;10.67;;;-0.30;99.90;;;;;;5082290;28;20214;-78
2023/12/17 03:24:40;;;;;;;15.57;11.07;;;-0.30;99.90;;;;;;5060365;28;20669;-78
2023/12/17 03:27:06;;;;;;;15.90;11.33;;;-0.40;99.90;;;;;;5074957;28;20188;-77
2023/12/17 03:29:32;;;;;;;15.40;10.33;;;-0.50;99.90;;;;;;5057107;28;20260;-77
2023/12/17 03:31:58;;;;;;;15.27;11.53;;;-0.50;99.90;;;;;;5075300;28;20179;-76
2023/12/17 03:34:23;;;;;;;18.77;11.60;;;-0.40;99.90;;;;;;5075542;28;20526;-78
2023/12/17 03:36:49;;;;;;;16.80;10.03;;;-0.30;99.90;;;;;;5078434;28;20181;-78
2023/12/17 03:39:15;;;;;;;14.90;10.60;;;-0.40;99.90;;;;;;5093281;28;20185;-77
2023/12/17 03:41:41;;;;;;;15.87;10.13;;;-0.40;99.90;;;;;;5091206;28;20213;-76
2023/12/17 03:44:06;;;;;;;14.47;10.13;;;-0.30;99.90;;;;;;5077431;28;20269;-77
2023/12/17 03:46:32;;;;;;;16.00;9.83;;;-0.50;99.90;;;;;;5092054;28;20240;-78
2023/12/17 03:48:58;;;;;;;15.73;10.13;;;-0.40;99.90;;;;;;5079210;28;20174;-76
2023/12/17 03:51:23;;;;;;;12.63;8.70;;;-0.40;99.90;;;;;;5076547;28;20180;-76
2023/12/17 03:53:49;;;;;;;11.37;8.77;;;-0.40;99.90;;;;;;5075402;28;20276;-75
2023/12/17 03:56:16;;;;;;;14.50;9.70;;;-0.40;99.90;;;;;;5076240;28;20252;-75
2023/12/17 03:58:43;;;;;;;12.50;9.50;;;-0.40;99.90;;;;;;5075297;28;20174;-76
2023/12/17 04:01:09;;;;;;;12.20;8.37;;;-0.40;99.90;;;;;;5076519;28;20652;-76
2023/12/17 04:03:36;;;;;;;13.37;8.90;;;-0.30;99.90;;;;;;5078926;28;20215;-77
2023/12/17 04:06:04;;;;;;;12.43;8.30;;;-0.30;99.90;;;;;;5079735;28;20165;-79
2023/12/17 04:08:30;;;;;;;12.23;8.23;;;-0.30;99.90;;;;;;5078673;28;20172;-78
2023/12/17 04:10:56;;;;;;;11.77;8.50;;;-0.40;99.90;;;;;;5075788;28;20220;-78
2023/12/17 04:13:21;;;;;;;14.83;8.77;;;-0.40;99.90;;;;;;5075135;28;20256;-77
2023/12/17 04:15:47;;;;;;;12.87;8.80;;;-0.30;99.90;;;;;;5074739;28;20177;-77
2023/12/17 04:18:13;;;;;;;10.77;7.87;;;-0.40;99.90;;;;;;5075822;28;20178;-75
2023/12/17 04:20:39;;;;;;;13.90;8.10;;;-0.30;99.90;;;;;;5075828;28;20672;-78
2023/12/17 04:23:05;;;;;;;9.43;7.93;;;-0.40;99.90;;;;;;5056468;28;20320;-76
2023/12/17 04:25:30;;;;;;;11.13;8.37;;;-0.40;99.90;;;;;;5080906;28;20176;-77
2023/12/17 04:27:56;;;;;;;10.77;8.63;;;-0.30;99.90;;;;;;5089732;28;20264;-75
2023/12/17 04:30:22;;;;;;;11.97;8.20;;;-0.30;99.90;;;;;;5082777;28;20193;-76
2023/12/17 04:32:48;;;;;;;14.13;8.30;;;-0.40;99.90;;;;;;5075263;28;20594;-78
2023/12/17 04:35:14;;;;;;;13.30;8.10;;;-0.30;99.90;;;;;;5074337;28;20493;-79
2023/12/17 04:37:40;;;;;;;10.57;8.17;;;-0.40;99.90;;;;;;5075227;28;20201;-77
2023/12/17 04:40:07;;;;;;;11.17;8.23;;;-0.40;99.90;;;;;;5084221;28;20184;-77
2023/12/17 04:42:32;;;;;;;14.00;8.67;;;-0.40;99.90;;;;;;5074088;28;20307;-77
2023/12/17 04:44:58;;;;;;;10.53;8.10;;;-0.50;99.90;;;;;;5074893;28;20213;-75
2023/12/17 04:47:24;;;;;;;9.67;7.87;;;-0.50;99.90;;;;;;5075315;28;20774;-77
2023/12/17 04:49:50;;;;;;;10.63;8.27;;;-0.50;99.90;;;;;;5073831;28;20192;-78
2023/12/17 04:52:15;;;;;;;9.53;7.83;;;-0.40;99.90;;;;;;5073441;28;20229;-80
2023/12/17 04:54:41;;;;;;;11.63;8.47;;;-0.40;99.90;;;;;;5073166;28;20205;-78
2023/12/17 04:57:07;;;;;;;12.47;8.37;;;-0.40;99.90;;;;;;5073441;28;20229;-76
2023/12/17 04:59:32;;;;;;;10.20;7.90;;;-0.40;99.90;;;;;;5074520;28;20700;-80
2023/12/17 05:01:58;;;;;;;10.83;8.03;;;-0.40;99.90;;;;;;5074550;28;20302;-78
2023/12/17 05:04:24;;;;;;;12.23;7.93;;;-0.50;99.90;;;;;;5073647;28;20185;-77
2023/12/17 05:06:50;;;;;;;11.67;8.33;;;-0.50;99.90;;;;;;5073639;28;20239;-77
2023/12/17 05:09:15;;;;;;;9.43;7.93;;;-0.60;99.90;;;;;;5073650;28;20221;-77
2023/12/17 05:11:41;;;;;;;10.33;8.30;;;-0.60;99.90;;;;;;5079462;28;20180;-79
2023/12/17 05:14:07;;;;;;;11.40;8.40;;;2.40;99.90;;;;;;5075966;28;20544;-80
2023/12/17 05:16:33;;;;;;;12.90;8.67;;;-0.40;99.90;;;;;;5074747;28;20177;-78
2023/12/17 05:19:02;;;;;;;12.97;7.93;;;-0.50;99.90;;;;;;5075286;28;20589;-77
2023/12/17 05:21:27;;;;;;;9.77;7.97;;;-0.70;99.90;;;;;;5056801;28;20775;-78
2023/12/17 05:23:53;;;;;;;12.37;8.70;;;-0.60;99.90;;;;;;5074468;28;20256;-78
2023/12/17 05:26:19;;;;;;;11.87;8.73;;;-0.70;99.90;;;;;;5073782;28;20641;-76
2023/12/17 05:28:45;;;;;;;10.93;8.37;;;-0.60;99.90;;;;;;5056076;28;20172;-78
2023/12/17 05:31:10;;;;;;;14.43;8.93;;;-0.60;99.90;;;;;;5057070;28;20178;-76
2023/12/17 05:33:36;;;;;;;15.37;8.97;;;-1.00;99.90;;;;;;5074015;28;20670;-76
2023/12/17 05:36:04;;;;;;;10.23;7.87;;;-0.60;99.90;;;;;;5055545;28;20174;-78
2023/12/17 05:38:30;;;;;;;11.13;8.53;;;-0.60;99.90;;;;;;5076206;28;20173;-77
2023/12/17 05:40:56;;;;;;;10.70;7.87;;;-0.50;99.90;;;;;;5059113;28;20185;-78
2023/12/17 05:43:22;;;;;;;10.57;7.60;;;-0.60;99.90;;;;;;5080531;28;20287;-76
2023/12/17 05:45:48;;;;;;;10.37;7.93;;;-0.60;99.90;;;;;;5081494;28;20173;-78
2023/12/17 05:48:14;;;;;;;12.03;8.03;;;-0.60;99.90;;;;;;5061314;28;20185;-78
2023/12/17 05:50:41;;;;;;;11.53;8.33;;;-0.50;99.90;;;;;;5087387;28;20259;-79
2023/12/17 05:53:06;;;;;;;9.87;7.37;;;-0.40;99.90;;;;;;5082598;28;20176;-78
2023/12/17 05:55:32;;;;;;;10.73;8.03;;;-1.30;99.90;;;;;;5081083;28;20169;-75
2023/12/17 05:57:58;;;;;;;10.30;7.77;;;-0.50;99.90;;;;;;5092678;28;20203;-77
2023/12/17 06:00:24;;;;;;;11.40;7.93;;;-0.50;99.90;;;;;;5100709;28;20589;-76
2023/12/17 06:02:50;;;;;;;11.07;7.90;;;-0.50;99.90;;;;;;5095147;28;20289;-77
2023/12/17 06:05:16;;;;;;;11.60;7.53;;;-0.50;99.90;;;;;;5077127;28;20191;-78
2023/12/17 06:07:42;;;;;;;9.77;7.00;;;-0.50;99.90;;;;;;5077636;28;20271;-77
2023/12/17 06:10:09;;;;;;;11.63;7.80;;;-0.50;99.90;;;;;;5079738;28;20225;-76
2023/12/17 06:12:35;;;;;;;9.33;7.33;;;-0.50;99.90;;;;;;5088196;28;20634;-77
2023/12/17 06:15:00;;;;;;;12.20;8.40;;;-0.50;99.90;;;;;;5088046;28;20177;-78
2023/12/17 06:17:26;;;;;;;10.67;7.60;;;-0.40;99.90;;;;;;5084352;28;20201;-78
2023/12/17 06:19:53;;;;;;;10.73;7.30;;;-0.40;99.90;;;;;;5080138;28;20229;-79
2023/12/17 06:22:19;;;;;;;11.40;7.80;;;-0.50;99.90;;;;;;5078593;28;20695;-76
2023/12/17 06:24:45;;;;;;;9.83;6.80;;;-0.40;99.90;;;;;;5061324;28;20179;-77
2023/12/17 06:27:15;;;;;;;7.03;6.27;;;-0.40;99.90;;;;;;5078013;28;20208;-78
2023/12/17 06:29:41;;;;;;;8.30;6.40;;;-0.40;99.90;;;;;;5076366;28;20185;-77
2023/12/17 06:32:07;;;;;;;7.90;6.30;;;-0.40;99.90;;;;;;5075675;28;20185;-79
2023/12/17 06:34:34;;;;;;;7.10;5.60;;;-0.40;99.90;;;;;;5094852;28;20182;-77
2023/12/17 06:37:03;;;;;;;6.27;5.67;;;-0.30;99.90;;;;;;5079162;28;20171;-76
2023/12/17 06:39:29;;;;;;;14.73;7.17;;;-0.40;99.90;;;;;;5096991;28;20573;-75
2023/12/17 06:41:55;;;;;;;18.10;9.30;;;-0.40;99.90;;;;;;5096596;28;20275;-78
2023/12/17 06:44:21;;;;;;;27.83;13.43;;;-0.40;99.90;;;;;;5096199;28;20655;-79
2023/12/17 06:46:49;;;;;;;33.10;16.60;;;-0.40;99.90;;;;;;5096877;28;20640;-78
2023/12/17 06:49:14;;;;;;;32.80;15.90;;;-0.40;99.90;;;;;;5095770;28;20952;-78
2023/12/17 06:51:40;;;;;;;27.00;14.23;;;-0.40;99.90;;;;;;5096771;28;20184;-76
2023/12/17 06:54:07;;;;;;;21.70;12.27;;;-0.40;99.90;;;;;;5096799;28;20228;-76
2023/12/17 06:56:33;;;;;;;17.60;10.37;;;-0.40;99.90;;;;;;5097439;28;20174;-77
2023/12/17 06:58:59;;;;;;;12.70;8.23;;;-0.40;99.90;;;;;;5101496;28;20177;-76
2023/12/17 07:01:25;;;;;;;14.93;9.27;;;-0.40;99.90;;;;;;5096248;28;20607;-76
2023/12/17 07:03:50;;;;;;;15.57;9.03;;;-0.40;99.90;;;;;;5096649;28;20275;-76
2023/12/17 07:06:16;;;;;;;14.07;8.10;;;-0.40;99.90;;;;;;5096551;28;20183;-76
2023/12/17 07:08:42;;;;;;;11.03;8.67;;;-0.40;99.90;;;;;;5096512;28;20176;-75
2023/12/17 07:11:09;;;;;;;11.13;8.20;;;-0.40;99.90;;;;;;5096756;28;20218;-76
2023/12/17 07:13:34;;;;;;;14.63;7.83;;;-0.30;99.90;;;;;;5096330;28;20706;-75
2023/12/17 07:16:00;;;;;;;10.57;7.87;;;-0.30;99.90;;;;;;5103551;28;20185;-77
2023/12/17 07:18:26;;;;;;;12.40;8.37;;;-0.20;99.90;;;;;;5097186;28;20224;-75
2023/12/17 07:20:52;;;;;;;9.67;7.37;;;-0.20;99.90;;;;;;5095678;28;20180;-77
2023/12/17 07:23:17;;;;;;;13.33;8.07;;;-0.60;99.90;;;;;;5095831;28;20261;-75
2023/12/17 07:25:43;;;;;;;8.73;7.03;;;-0.50;99.90;;;;;;5079932;28;20208;-76
2023/12/17 07:28:09;;;;;;;10.63;7.53;;;-0.50;99.90;;;;;;5100622;28;20202;-78
2023/12/17 07:30:35;;;;;;;8.87;7.10;;;-0.40;99.90;;;;;;5097116;28;20516;-79
2023/12/17 07:33:00;;;;;;;11.40;8.13;;;-0.80;99.90;;;;;;5096368;28;20526;-78
2023/12/17 07:35:26;;;;;;;10.67;8.00;;;-0.40;99.90;;;;;;5077971;28;20239;-76
2023/12/17 07:37:52;;;;;;;10.33;7.93;;;-0.40;99.90;;;;;;5096452;28;20216;-79
2023/12/17 07:40:18;;;;;;;12.43;8.20;;;-0.30;99.90;;;;;;5077900;28;20259;-77
2023/12/17 07:42:44;;;;;;;13.40;9.33;;;-0.20;99.90;;;;;;5095183;28;20250;-77
2023/12/17 07:45:10;;;;;;;14.00;9.33;;;-0.20;99.90;;;;;;5095802;28;20215;-75
2023/12/17 07:47:36;;;;;;;12.60;9.33;;;-0.40;99.90;;;;;;5099764;28;20190;-76
2023/12/17 07:50:02;;;;;;;13.03;8.53;;;-0.30;99.90;;;;;;5099277;28;20179;-80
2023/12/17 07:52:28;;;;;;;12.73;9.10;;;-0.20;99.90;;;;;;5097564;28;20526;-76
2023/12/17 07:54:54;;;;;;;12.03;8.10;;;-0.20;99.90;;;;;;5108428;28;20174;-79
2023/12/17 07:57:20;;;;;;;10.57;8.70;;;-0.20;99.90;;;;;;5083350;28;20190;-75
2023/12/17 07:59:48;;;;;;;14.20;8.47;;;-0.10;99.90;;;;;;5071621;28;20177;-77
2023/12/17 08:02:17;;;;;;;12.67;8.47;;;0.00;99.90;;;;;;5102714;28;20627;-77
2023/12/17 08:04:45;;;;;;;11.97;8.10;;;0.10;99.90;;;;;;5092011;28;20184;-79
2023/12/17 08:07:11;;;;;;;11.70;7.77;;;0.20;99.90;;;;;;5106420;28;20184;-75
2023/12/17 08:09:37;;;;;;;12.33;8.33;;;0.40;99.90;;;;;;5082548;28;20366;-76
2023/12/17 08:12:05;;;;;;;12.77;8.70;;;0.60;99.90;;;;;;5096062;28;20600;-77
2023/12/17 08:14:31;;;;;;;11.57;8.03;;;0.90;99.90;;;;;;5094131;28;20673;-75
2023/12/17 08:16:58;;;;;;;13.20;8.40;;;1.10;99.90;;;;;;5094008;28;20182;-77
2023/12/17 08:19:24;;;;;;;13.27;7.97;;;1.30;99.90;;;;;;5095884;28;20626;-75
2023/12/17 08:21:50;;;;;;;11.53;8.70;;;1.20;99.90;;;;;;5128131;27;20209;-76
2023/12/17 08:24:16;;;;;;;10.60;8.33;;;1.10;99.90;;;;;;5134703;27;20264;-75
2023/12/17 08:26:42;;;;;;;10.87;8.23;;;1.10;99.90;;;;;;5134361;27;20192;-74
2023/12/17 08:29:07;;;;;;;10.10;7.53;;;1.10;99.90;;;;;;5128617;27;20231;-77
2023/12/17 08:31:33;;;;;;;14.03;8.27;;;1.00;99.90;;;;;;5114903;28;20625;-77
2023/12/17 08:33:59;;;;;;;11.67;7.93;;;1.00;99.90;;;;;;5117701;28;20222;-78
2023/12/17 08:36:27;;;;;;;10.70;7.57;;;0.90;99.90;;;;;;5118214;28;20185;-77
2023/12/17 08:38:54;;;;;;;10.80;7.97;;;0.90;99.90;;;;;;5114994;28;20178;-77
2023/12/17 08:41:20;;;;;;;8.97;7.73;;;0.90;99.90;;;;;;5114194;28;20231;-78
2023/12/17 08:43:46;;;;;;;10.53;7.90;;;1.00;99.90;;;;;;5115124;28;20930;-78
2023/12/17 08:46:11;;;;;;;11.23;7.83;;;0.90;99.90;;;;;;5122983;27;20185;-77
2023/12/17 08:48:37;;;;;;;11.53;8.53;;;0.80;99.90;;;;;;5097323;27;20203;-77
2023/12/17 08:51:04;;;;;;;9.93;7.90;;;0.90;99.90;;;;;;5112927;28;20517;-78
2023/12/17 08:53:30;;;;;;;13.40;7.73;;;0.80;99.90;;;;;;5115263;28;20521;-77
2023/12/17 08:55:56;;;;;;;11.83;8.93;;;0.80;99.90;;;;;;5114866;28;20247;-78
2023/12/17 08:58:22;;;;;;;11.47;9.07;;;1.00;99.90;;;;;;5114662;28;20181;-78
2023/12/17 09:00:47;;;;;;;11.47;8.03;;;1.10;99.90;;;;;;5113979;28;20263;-76
2023/12/17 09:03:13;;;;;;;10.43;7.80;;;1.20;99.90;;;;;;5113474;28;20635;-78
2023/12/17 09:05:39;;;;;;;11.47;8.40;;;1.10;99.90;;;;;;5112298;28;20536;-77
2023/12/17 09:08:05;;;;;;;8.07;7.27;;;1.20;99.90;;;;;;5113954;28;20222;-76
2023/12/17 09:10:31;;;;;;;12.40;7.97;;;1.20;99.90;;;;;;5097529;28;20294;-77
2023/12/17 09:12:57;;;;;;;11.33;8.20;;;1.30;99.90;;;;;;5081572;28;20202;-75
2023/12/17 09:15:24;;;;;;;9.90;8.03;;;1.30;99.90;;;;;;5093321;28;20182;-76
2023/12/17 09:17:50;;;;;;;10.07;8.17;;;1.30;99.90;;;;;;5093303;28;20167;-76
2023/12/17 09:20:16;;;;;;;9.43;7.57;;;1.40;99.90;;;;;;5075153;28;20178;-77
2023/12/17 09:22:41;;;;;;;8.87;7.17;;;1.60;99.90;;;;;;5092561;28;20213;-76
2023/12/17 09:25:09;;;;;;;9.50;7.23;;;1.70;99.90;;;;;;5094648;28;20183;-77
2023/12/17 09:27:35;;;;;;;9.40;7.57;;;1.70;99.90;;;;;;5075890;28;20178;-76
2023/12/17 09:30:01;;;;;;;9.77;7.63;;;1.70;99.90;;;;;;5094131;28;20253;-75
2023/12/17 09:32:27;;;;;;;9.40;7.57;;;1.70;99.90;;;;;;5093494;28;20311;-77
2023/12/17 09:34:52;;;;;;;11.40;7.60;;;1.70;99.90;;;;;;5094900;28;20257;-75
2023/12/17 09:37:20;;;;;;;9.97;8.20;;;1.80;99.90;;;;;;5079096;28;20187;-77
2023/12/17 09:39:45;;;;;;;11.33;8.10;;;1.90;99.90;;;;;;5078723;28;20195;-75
2023/12/17 09:42:11;;;;;;;10.53;8.30;;;2.00;99.90;;;;;;5075416;28;20237;-76
2023/12/17 09:44:39;;;;;;;10.50;7.87;;;2.10;99.90;;;;;;5050954;28;20166;-76
2023/12/17 09:47:05;;;;;;;13.33;7.60;;;2.20;99.90;;;;;;5087318;28;20696;-76
2023/12/17 09:49:31;;;;;;;8.83;6.90;;;2.30;99.90;;;;;;5080796;28;20242;-75
2023/12/17 09:52:03;;;;;;;8.63;7.27;;;3.20;99.90;;;;;;5062267;28;20253;-77
2023/12/17 09:54:29;;;;;;;9.30;7.57;;;2.30;99.90;;;;;;5078215;28;20263;-77
2023/12/17 09:56:57;;;;;;;9.40;7.00;;;2.30;99.90;;;;;;5081781;28;20264;-75
2023/12/17 09:59:23;;;;;;;9.17;7.67;;;2.30;99.90;;;;;;5085170;28;20163;-76
2023/12/17 10:01:48;;;;;;;9.17;7.50;;;2.20;99.90;;;;;;5072989;28;20203;-75
2023/12/17 10:04:14;;;;;;;9.50;7.40;;;2.30;99.90;;;;;;5093959;28;20195;-77
2023/12/17 10:06:41;;;;;;;9.13;8.00;;;2.40;99.90;;;;;;5096064;28;20181;-78
2023/12/17 10:09:08;;;;;;;10.53;7.60;;;2.50;99.90;;;;;;5095740;28;20224;-76
2023/12/17 10:11:34;;;;;;;9.93;7.20;;;2.60;99.90;;;;;;5083901;28;20175;-77
2023/12/17 10:14:01;;;;;;;10.27;8.47;;;2.60;99.90;;;;;;5089340;28;20183;-79
2023/12/17 10:16:27;;;;;;;14.80;8.30;;;3.10;99.90;;;;;;5065188;28;20177;-77
2023/12/17 10:18:55;;;;;;;12.13;9.20;;;2.70;99.90;;;;;;5063688;28;20177;-76
2023/12/17 10:21:21;;;;;;;10.27;8.53;;;2.50;99.90;;;;;;5073067;28;20244;-75
2023/12/17 10:23:48;;;;;;;10.30;8.93;;;2.50;99.90;;;;;;5055634;28;20236;-76
2023/12/17 10:26:14;;;;;;;11.70;8.93;;;2.60;99.90;;;;;;5058177;28;20200;-78
2023/12/17 10:28:47;;;;;;;12.00;9.37;;;2.70;99.90;;;;;;5059345;28;20187;-76
2023/12/17 10:31:15;;;;;;;10.57;8.70;;;2.70;99.90;;;;;;5077163;28;20613;-75
2023/12/17 10:33:54;;;;;;;13.00;8.87;;;2.80;99.90;;;;;;5076402;28;20172;-75
2023/12/17 10:36:21;;;;;;;11.77;8.93;;;2.90;99.90;;;;;;5076251;28;20173;-77
2023/12/17 10:38:48;;;;;;;12.77;9.97;;;3.00;99.90;;;;;;5076244;28;20254;-79
2023/12/17 10:41:16;;;;;;;13.77;9.77;;;3.00;99.90;;;;;;5058774;28;20189;-76
2023/12/17 10:43:43;;;;;;;12.10;9.77;;;3.10;99.90;;;;;;5075502;28;20204;-76
2023/12/17 10:46:11;;;;;;;11.43;9.93;;;3.10;99.90;;;;;;5082540;28;20315;-79
2023/12/17 10:48:37;;;;;;;14.87;11.00;;;3.20;99.90;;;;;;5096813;28;20194;-76
2023/12/17 10:51:03;;;;;;;12.63;10.33;;;3.30;99.90;;;;;;5078053;28;20185;-80
2023/12/17 10:53:29;;;;;;;11.67;9.20;;;3.30;99.90;;;;;;5098115;28;20167;-76
2023/12/17 10:55:55;;;;;;;10.57;8.17;;;3.40;99.90;;;;;;5098843;28;20174;-77
2023/12/17 10:58:22;;;;;;;10.97;7.70;;;3.40;99.90;;;;;;5098794;28;20170;-76
2023/12/17 11:00:50;;;;;;;10.13;8.40;;;3.50;99.90;;;;;;5097644;28;20174;-79
2023/12/17 11:03:16;;;;;;;10.47;7.00;;;3.50;99.90;;;;;;5096953;28;20559;-78
2023/12/17 11:05:57;;;;;;;9.80;8.20;;;3.60;99.90;;;;;;5097822;28;20174;-77
2023/12/17 11:08:24;;;;;;;10.07;7.30;;;3.60;99.90;;;;;;5097476;28;20172;-76
2023/12/17 11:10:50;;;;;;;11.80;7.87;;;3.60;99.90;;;;;;5098651;28;20273;-82
2023/12/17 11:13:21;;;;;;;11.37;8.30;;;3.70;99.90;;;;;;5101476;28;20163;-81
2023/12/17 11:15:47;;;;;;;12.13;6.70;;;3.80;99.90;;;;;;5081210;28;20191;-78
2023/12/17 11:18:13;;;;;;;10.10;6.73;;;3.80;99.90;;;;;;5097701;28;20181;-76
2023/12/17 11:20:44;;;;;;;10.97;7.90;;;3.90;99.90;;;;;;5080277;28;20182;-76
2023/12/17 11:23:10;;;;;;;18.50;12.73;;;4.00;99.90;;;;;;5092275;28;20697;-78
2023/12/17 11:25:36;;;;;;;17.40;11.60;;;4.00;99.90;;;;;;5086870;28;20175;-76
2023/12/17 11:28:02;;;;;;;14.10;10.53;;;4.10;99.90;;;;;;5085839;28;20202;-77
2023/12/17 11:30:32;;;;;;;11.67;8.40;;;4.00;99.90;;;;;;5095289;28;20224;-79
2023/12/17 11:33:02;;;;;;;8.70;7.17;;;4.20;99.90;;;;;;5101622;28;20677;-75
2023/12/17 11:35:29;;;;;;;8.67;6.70;;;4.20;99.90;;;;;;5095663;28;20765;-77
2023/12/17 11:37:55;;;;;;;9.23;6.57;;;4.20;99.90;;;;;;5095093;28;20171;-75
2023/12/17 11:40:22;;;;;;;12.10;7.67;;;4.20;99.90;;;;;;5094646;28;20163;-75
2023/12/17 11:43:00;;;;;;;13.93;8.47;;;4.20;99.90;;;;;;5095830;28;20231;-76
2023/12/17 11:45:47;;;;;;;10.83;8.37;;;4.30;99.90;;;;;;5095725;28;20253;-77
2023/12/17 11:48:21;;;;;;;11.33;8.33;;;4.30;99.90;;;;;;5095933;28;20164;-79
2023/12/17 11:50:49;;;;;;;10.30;8.10;;;4.40;99.90;;;;;;5096111;28;20236;-77
2023/12/17 11:53:16;;;;;;;10.60;8.57;;;4.40;99.90;;;;;;5086237;28;20181;-74
2023/12/17 11:55:47;;;;;;;13.17;9.20;;;4.40;99.90;;;;;;5074956;28;20302;-74
2023/12/17 11:58:21;;;;;;;11.43;9.13;;;4.50;99.90;;;;;;5057228;28;20230;-77
2023/12/17 12:01:10;;;;;;;9.67;8.27;;;4.50;99.90;;;;;;5076570;28;20236;-77
2023/12/17 12:03:39;;;;;;;11.07;8.07;;;4.50;99.90;;;;;;5093408;28;20215;-75
2023/12/17 12:06:08;;;;;;;12.10;8.37;;;4.60;99.90;;;;;;5126216;28;20219;-74
2023/12/17 12:08:53;;;;;;;10.20;8.17;;;4.30;99.90;;;;;;5125132;28;20271;-76
2023/12/17 12:11:19;;;;;;;10.73;8.13;;;4.60;99.90;;;;;;5114533;28;20642;-75
2023/12/17 12:13:48;;;;;;;17.40;9.40;;;4.70;99.90;;;;;;5116698;28;20171;-75
2023/12/17 12:16:15;;;;;;;18.60;10.93;;;4.60;99.90;;;;;;5114959;28;20189;-75
2023/12/17 12:18:42;;;;;;;13.00;9.80;;;4.70;99.90;;;;;;5113564;28;20249;-76
2023/12/17 12:21:18;;;;;;;18.60;10.03;;;4.70;99.90;;;;;;5116489;28;20187;-74
2023/12/17 12:23:55;;;;;;;14.23;10.23;;;4.70;99.90;;;;;;5116838;28;20230;-74
2023/12/17 12:26:21;;;;;;;13.80;10.50;;;4.80;99.90;;;;;;5109986;28;20643;-76
2023/12/17 12:28:57;;;;;;;25.43;15.73;;;4.80;99.90;;;;;;5086990;28;20178;-76
2023/12/17 12:31:24;;;;;;;22.57;12.60;;;4.80;99.90;;;;;;5086198;28;20168;-75
2023/12/17 12:33:59;;;;;;;20.70;12.93;;;4.90;99.90;;;;;;5090755;28;20180;-78
2023/12/17 12:36:25;;;;;;;20.47;12.13;;;5.00;99.90;;;;;;5087326;28;20167;-78
2023/12/17 12:39:02;;;;;;;18.50;11.60;;;5.00;99.90;;;;;;5095553;28;20176;-76